createdAt,value
2018-05-16T00:00:09.416Z,17.83
2018-05-16T00:02:42.783Z,17.90
2018-05-16T00:05:15.431Z,17.63
2018-05-16T00:07:48.046Z,17.57
2018-05-16T00:10:20.671Z,17.47
2018-05-16T00:12:53.275Z,17.83
2018-05-16T00:15:25.915Z,16.83
2018-05-16T00:17:58.515Z,17.13
2018-05-16T00:20:31.135Z,18.20
2018-05-16T00:23:03.766Z,18.53
2018-05-16T00:25:36.447Z,18.93
2018-05-16T00:28:09.802Z,19.40
2018-05-16T00:30:42.440Z,19.63
2018-05-16T00:33:15.802Z,19.53
2018-05-16T00:35:48.435Z,21.63
2018-05-16T00:38:21.047Z,20.83
2018-05-16T00:40:53.687Z,20.33
2018-05-16T00:43:26.290Z,20.87
2018-05-16T00:45:58.926Z,21.33
2018-05-16T00:48:31.538Z,21.00
2018-05-16T00:51:15.940Z,21.47
2018-05-16T00:53:48.534Z,22.20
2018-05-16T00:56:21.179Z,20.67
2018-05-16T00:58:53.871Z,21.13
2018-05-16T01:01:26.509Z,21.27
2018-05-16T01:03:59.059Z,21.90
2018-05-16T01:06:31.674Z,21.90
2018-05-16T01:09:04.279Z,22.03
2018-05-16T01:11:37.112Z,20.83
2018-05-16T01:14:10.517Z,21.10
2018-05-16T01:16:43.155Z,21.83
2018-05-16T01:19:15.751Z,21.57
2018-05-16T01:21:48.395Z,21.23
2018-05-16T01:24:21.758Z,21.97
2018-05-16T01:26:54.388Z,22.40
2018-05-16T01:29:27.751Z,21.93
2018-05-16T01:32:00.398Z,22.23
2018-05-16T01:34:33.792Z,22.73
2018-05-16T01:37:06.431Z,22.93
2018-05-16T01:39:39.791Z,21.53
2018-05-16T01:42:12.423Z,23.37
2018-05-16T01:44:45.020Z,21.10
2018-05-16T01:47:17.638Z,22.43
2018-05-16T01:49:50.234Z,22.63
2018-05-16T01:52:22.877Z,22.80
2018-05-16T01:54:55.481Z,21.43
2018-05-16T01:57:28.119Z,21.23
2018-05-16T02:00:00.731Z,22.10
2018-05-16T02:02:34.159Z,22.20
2018-05-16T02:05:06.833Z,21.47
2018-05-16T02:07:39.472Z,22.83
2018-05-16T02:10:12.073Z,22.33
2018-05-16T02:12:44.694Z,19.93
2018-05-16T02:15:17.290Z,21.83
2018-05-16T02:17:49.931Z,21.13
2018-05-16T02:20:22.531Z,20.87
2018-05-16T02:22:55.147Z,20.93
2018-05-16T02:25:27.748Z,20.90
2018-05-16T02:28:00.371Z,20.20
2018-05-16T02:30:33.156Z,21.40
2018-05-16T02:33:06.552Z,20.57
2018-05-16T02:35:39.151Z,20.43
2018-05-16T02:38:12.561Z,20.67
2018-05-16T02:40:45.163Z,19.63
2018-05-16T02:43:18.575Z,20.17
2018-05-16T02:45:51.239Z,20.10
2018-05-16T02:48:23.872Z,21.50
2018-05-16T02:50:56.484Z,20.10
2018-05-16T02:53:29.131Z,20.43
2018-05-16T02:56:02.490Z,19.43
2018-05-16T02:58:35.143Z,19.07
2018-05-16T03:01:08.508Z,19.33
2018-05-16T03:03:41.148Z,19.80
2018-05-16T03:06:13.747Z,19.50
2018-05-16T03:08:46.384Z,19.60
2018-05-16T03:11:18.987Z,20.20
2018-05-16T03:13:51.654Z,21.47
2018-05-16T03:16:24.287Z,19.57
2018-05-16T03:18:57.689Z,20.10
2018-05-16T03:21:30.286Z,19.83
2018-05-16T03:24:03.823Z,20.23
2018-05-16T03:26:36.415Z,21.10
2018-05-16T03:29:09.027Z,20.83
2018-05-16T03:31:41.651Z,20.90
2018-05-16T03:34:15.786Z,20.97
2018-05-16T03:36:48.379Z,20.90
2018-05-16T03:39:21.016Z,21.73
2018-05-16T03:41:53.620Z,21.60
2018-05-16T03:44:26.268Z,22.00
2018-05-16T03:46:59.691Z,22.30
2018-05-16T03:49:33.099Z,22.57
2018-05-16T03:52:06.534Z,22.33
2018-05-16T03:54:39.131Z,22.40
2018-05-16T03:57:23.787Z,23.07
2018-05-16T04:00:08.246Z,23.00
2018-05-16T04:02:52.638Z,22.83
2018-05-16T04:05:25.259Z,21.70
2018-05-16T04:07:57.884Z,21.87
2018-05-16T04:10:31.286Z,23.53
2018-05-16T04:13:03.894Z,23.47
2018-05-16T04:15:37.299Z,22.60
2018-05-16T04:18:10.664Z,23.90
2018-05-16T04:20:43.287Z,22.43
2018-05-16T04:23:15.888Z,22.30
2018-05-16T04:25:49.291Z,22.53
2018-05-16T04:28:21.939Z,23.50
2018-05-16T04:30:55.343Z,22.47
2018-05-16T04:33:27.948Z,21.33
2018-05-16T04:36:00.598Z,22.60
2018-05-16T04:38:33.963Z,24.67
2018-05-16T04:41:06.596Z,23.10
2018-05-16T04:43:39.194Z,23.10
2018-05-16T04:46:11.813Z,23.57
2018-05-16T04:48:44.416Z,23.90
2018-05-16T04:51:17.055Z,22.93
2018-05-16T04:53:50.423Z,23.60
2018-05-16T04:56:23.060Z,24.57
2018-05-16T04:58:55.680Z,25.50
2018-05-16T05:01:28.315Z,24.03
2018-05-16T05:04:00.914Z,22.20
2018-05-16T05:06:33.554Z,25.47
2018-05-16T05:09:06.159Z,25.30
2018-05-16T05:11:38.812Z,24.83
2018-05-16T05:14:12.180Z,23.90
2018-05-16T05:16:44.835Z,24.90
2018-05-16T05:19:17.436Z,23.50
2018-05-16T05:21:50.063Z,24.73
2018-05-16T05:24:22.663Z,24.30
2018-05-16T05:26:55.300Z,24.80
2018-05-16T05:29:27.891Z,25.80
2018-05-16T05:32:00.539Z,25.73
2018-05-16T05:34:33.175Z,27.07
2018-05-16T05:37:06.551Z,26.93
2018-05-16T05:39:39.153Z,24.77
2018-05-16T05:42:12.555Z,25.90
2018-05-16T05:44:45.153Z,27.57
2018-05-16T05:47:18.541Z,26.30
2018-05-16T05:49:51.143Z,25.37
2018-05-16T05:52:23.763Z,25.10
2018-05-16T05:54:57.133Z,26.03
2018-05-16T05:57:29.781Z,24.77
2018-05-16T06:00:02.406Z,25.47
2018-05-16T06:02:35.053Z,25.83
2018-05-16T06:05:08.459Z,25.83
2018-05-16T06:07:41.848Z,22.80
2018-05-16T06:10:14.457Z,22.97
2018-05-16T06:12:47.188Z,22.83
2018-05-16T06:15:19.726Z,22.90
2018-05-16T06:17:53.127Z,22.57
2018-05-16T06:20:26.619Z,22.60
2018-05-16T06:22:59.259Z,23.33
2018-05-16T06:25:31.854Z,21.97
2018-05-16T06:28:04.487Z,21.50
2018-05-16T06:30:37.099Z,22.03
2018-05-16T06:33:09.748Z,20.50
2018-05-16T06:35:42.351Z,21.43
2018-05-16T06:38:14.978Z,20.47
2018-05-16T06:40:47.580Z,22.07
2018-05-16T06:43:20.986Z,21.50
2018-05-16T06:45:53.717Z,19.57
2018-05-16T06:48:26.304Z,21.30
2018-05-16T06:50:58.903Z,20.97
2018-05-16T06:53:31.547Z,21.10
2018-05-16T06:56:04.147Z,19.80
2018-05-16T06:58:36.786Z,21.87
2018-05-16T07:01:09.389Z,22.17
2018-05-16T07:03:42.287Z,20.13
2018-05-16T07:06:14.891Z,21.37
2018-05-16T07:08:47.539Z,20.73
2018-05-16T07:11:20.140Z,18.73
2018-05-16T07:13:52.791Z,19.13
2018-05-16T07:16:25.395Z,19.93
2018-05-16T07:18:58.020Z,18.60
2018-05-16T07:21:31.603Z,18.03
2018-05-16T07:24:04.229Z,17.53
2018-05-16T07:26:36.831Z,17.53
2018-05-16T07:29:10.215Z,18.70
2018-05-16T07:31:42.819Z,16.33
2018-05-16T07:34:16.238Z,15.60
2018-05-16T07:36:48.835Z,15.97
2018-05-16T07:39:22.248Z,15.50
2018-05-16T07:41:55.622Z,16.00
2018-05-16T07:44:28.264Z,14.93
2018-05-16T07:47:00.891Z,16.53
2018-05-16T07:49:33.511Z,14.57
2018-05-16T07:52:06.884Z,14.53
2018-05-16T07:54:39.508Z,11.37
2018-05-16T07:57:12.887Z,13.40
2018-05-16T07:59:45.535Z,13.37
2018-05-16T08:02:18.622Z,13.23
2018-05-16T08:04:52.039Z,14.27
2018-05-16T08:07:32.920Z,13.40
2018-05-16T08:10:06.336Z,11.53
2018-05-16T08:12:39.703Z,11.13
2018-05-16T08:15:12.328Z,11.07
2018-05-16T08:17:45.695Z,12.67
2018-05-16T08:20:18.317Z,10.27
2018-05-16T08:22:50.922Z,11.70
2018-05-16T08:25:24.299Z,10.43
2018-05-16T08:27:56.899Z,11.33
2018-05-16T08:30:29.515Z,10.13
2018-05-16T08:33:02.888Z,10.10
2018-05-16T08:35:35.515Z,9.83
2018-05-16T08:38:08.131Z,11.23
2018-05-16T08:40:40.775Z,10.03
2018-05-16T08:43:13.379Z,10.27
2018-05-16T08:45:46.789Z,9.47
2018-05-16T08:48:19.382Z,8.80
2018-05-16T08:50:52.022Z,10.13
2018-05-16T08:53:24.621Z,9.13
2018-05-16T08:55:57.254Z,8.80
2018-05-16T08:58:30.622Z,9.23
2018-05-16T09:01:03.244Z,8.93
2018-05-16T09:03:35.843Z,8.37
2018-05-16T09:06:09.227Z,10.30
2018-05-16T09:08:41.826Z,9.30
2018-05-16T09:11:14.454Z,10.13
2018-05-16T09:13:47.050Z,10.13
2018-05-16T09:16:19.675Z,9.73
2018-05-16T09:18:52.275Z,9.63
2018-05-16T09:21:24.903Z,8.80
2018-05-16T09:23:58.264Z,9.20
2018-05-16T09:26:30.892Z,8.87
2018-05-16T09:29:03.495Z,8.07
2018-05-16T09:31:36.906Z,7.70
2018-05-16T09:34:10.286Z,7.73
2018-05-16T09:36:42.926Z,7.73
2018-05-16T09:39:15.555Z,7.60
2018-05-16T09:41:48.186Z,7.27
2018-05-16T09:44:21.546Z,6.93
2018-05-16T09:46:54.179Z,7.73
2018-05-16T09:49:26.780Z,7.37
2018-05-16T09:52:00.189Z,5.30
2018-05-16T09:54:33.567Z,6.90
2018-05-16T09:57:06.212Z,5.67
2018-05-16T09:59:38.877Z,5.23
2018-05-16T10:02:11.538Z,5.87
2018-05-16T10:04:44.140Z,5.43
2018-05-16T10:07:16.764Z,5.63
2018-05-16T10:09:50.138Z,4.97
2018-05-16T10:12:22.768Z,5.40
2018-05-16T10:14:56.128Z,5.73
2018-05-16T10:17:28.849Z,5.30
2018-05-16T10:20:01.455Z,4.60
2018-05-16T10:22:34.107Z,4.90
2018-05-16T10:25:06.710Z,4.93
2018-05-16T10:27:39.367Z,4.70
2018-05-16T10:30:11.971Z,4.23
2018-05-16T10:32:44.604Z,4.20
2018-05-16T10:35:17.979Z,3.60
2018-05-16T10:37:50.620Z,4.30
2018-05-16T10:40:23.993Z,3.53
2018-05-16T10:42:56.617Z,3.60
2018-05-16T10:45:29.979Z,3.77
2018-05-16T10:48:02.641Z,3.43
2018-05-16T10:50:35.258Z,3.37
2018-05-16T10:53:07.879Z,3.77
2018-05-16T10:55:40.488Z,3.47
2018-05-16T10:58:13.889Z,3.10
2018-05-16T11:00:47.284Z,3.47
2018-05-16T11:03:19.930Z,3.63
2018-05-16T11:05:52.553Z,3.77
2018-05-16T11:08:25.233Z,3.70
2018-05-16T11:10:57.857Z,3.80
2018-05-16T11:13:30.500Z,4.00
2018-05-16T11:16:03.090Z,4.40
2018-05-16T11:18:35.695Z,4.63
2018-05-16T11:21:08.298Z,4.53
2018-05-16T11:23:40.961Z,4.50
2018-05-16T11:26:13.559Z,4.40
2018-05-16T11:28:46.319Z,4.20
2018-05-16T11:31:19.695Z,4.00
2018-05-16T11:33:52.344Z,3.80
2018-05-16T11:36:25.000Z,4.80
2018-05-16T11:38:58.439Z,5.30
2018-05-16T11:41:31.072Z,4.23
2018-05-16T11:44:03.747Z,3.70
2018-05-16T11:46:36.347Z,3.60
2018-05-16T11:49:08.973Z,4.17
2018-05-16T11:51:41.570Z,3.97
2018-05-16T11:54:14.971Z,4.33
2018-05-16T11:56:47.577Z,4.37
2018-05-16T11:59:21.023Z,3.73
2018-05-16T12:01:53.619Z,3.77
2018-05-16T12:04:26.240Z,4.33
2018-05-16T12:06:58.860Z,4.63
2018-05-16T12:09:32.308Z,3.93
2018-05-16T12:12:04.918Z,4.40
2018-05-16T12:14:37.549Z,4.27
2018-05-16T12:17:10.929Z,4.50
2018-05-16T12:19:43.564Z,4.27
2018-05-16T12:22:16.164Z,4.37
2018-05-16T12:24:48.794Z,4.60
2018-05-16T12:27:21.413Z,3.77
2018-05-16T12:29:54.036Z,4.30
2018-05-16T12:32:26.627Z,4.20
2018-05-16T12:34:59.244Z,4.47
2018-05-16T12:37:31.852Z,4.40
2018-05-16T12:40:04.468Z,3.87
2018-05-16T12:42:37.832Z,4.60
2018-05-16T12:45:10.480Z,4.40
2018-05-16T12:47:43.095Z,4.37
2018-05-16T12:50:15.734Z,3.87
2018-05-16T12:52:48.329Z,4.10
2018-05-16T12:55:20.978Z,4.47
2018-05-16T12:57:53.599Z,4.27
2018-05-16T13:00:26.235Z,4.87
2018-05-16T13:02:58.838Z,5.00
2018-05-16T13:05:31.483Z,6.03
2018-05-16T13:08:04.079Z,7.03
2018-05-16T13:10:36.709Z,6.17
2018-05-16T13:13:09.315Z,5.57
2018-05-16T13:15:41.979Z,6.97
2018-05-16T13:18:15.387Z,5.70
2018-05-16T13:20:48.012Z,6.83
2018-05-16T13:23:20.616Z,6.37
2018-05-16T13:25:53.260Z,7.03
2018-05-16T13:28:25.860Z,6.93
2018-05-16T13:30:58.496Z,7.37
2018-05-16T13:33:31.103Z,6.50
2018-05-16T13:36:03.753Z,6.27
2018-05-16T13:38:36.382Z,5.07
2018-05-16T13:41:09.024Z,5.33
2018-05-16T13:43:42.712Z,5.00
2018-05-16T13:46:15.352Z,4.73
2018-05-16T13:48:47.967Z,4.90
2018-05-16T13:51:20.611Z,4.90
2018-05-16T13:53:53.319Z,6.27
2018-05-16T13:56:25.957Z,5.87
2018-05-16T13:58:58.563Z,7.10
2018-05-16T14:01:31.190Z,6.97
2018-05-16T14:04:03.793Z,6.53
2018-05-16T14:06:36.495Z,6.37
2018-05-16T14:09:09.060Z,6.77
2018-05-16T14:11:41.717Z,8.10
2018-05-16T14:14:14.340Z,6.13
2018-05-16T14:16:47.760Z,9.37
2018-05-16T14:19:20.380Z,5.87
2018-05-16T14:21:53.035Z,6.73
2018-05-16T14:24:26.406Z,5.50
2018-05-16T14:26:59.027Z,5.70
2018-05-16T14:29:31.647Z,6.30
2018-05-16T14:32:04.303Z,6.57
2018-05-16T14:34:37.702Z,7.83
2018-05-16T14:37:10.361Z,7.40
2018-05-16T14:39:42.953Z,6.57
2018-05-16T14:42:15.596Z,6.20
2018-05-16T14:44:48.965Z,5.77
2018-05-16T14:47:21.583Z,5.53
2018-05-16T14:49:54.180Z,5.90
2018-05-16T14:52:26.829Z,5.73
2018-05-16T14:55:00.540Z,5.37
2018-05-16T14:57:33.194Z,5.63
2018-05-16T15:00:06.572Z,5.40
2018-05-16T15:02:39.215Z,5.97
2018-05-16T15:05:11.828Z,5.70
2018-05-16T15:07:44.452Z,5.83
2018-05-16T15:10:17.051Z,6.00
2018-05-16T15:12:53.175Z,5.70
2018-05-16T15:15:25.787Z,5.30
2018-05-16T15:17:58.436Z,5.60
2018-05-16T15:20:31.035Z,5.97
2018-05-16T15:23:03.679Z,5.47
2018-05-16T15:25:36.270Z,5.10
2018-05-16T15:28:08.911Z,6.00
2018-05-16T15:30:41.514Z,5.33
2018-05-16T15:33:14.131Z,5.33
2018-05-16T15:35:46.736Z,5.30
2018-05-16T15:38:19.358Z,5.27
2018-05-16T15:40:52.732Z,5.13
2018-05-16T15:43:25.349Z,5.20
2018-05-16T15:45:58.720Z,5.10
2018-05-16T15:48:31.367Z,5.40
2018-05-16T15:51:03.968Z,5.87
2018-05-16T15:53:36.607Z,5.60
2018-05-16T15:56:09.217Z,5.87
2018-05-16T15:58:42.622Z,5.80
2018-05-16T16:01:15.246Z,5.30
2018-05-16T16:03:47.868Z,6.23
2018-05-16T16:06:20.471Z,5.60
2018-05-16T16:08:53.099Z,6.20
2018-05-16T16:11:26.460Z,5.80
2018-05-16T16:13:59.185Z,5.93
2018-05-16T16:16:31.704Z,5.80
2018-05-16T16:19:04.342Z,7.30
2018-05-16T16:21:36.931Z,9.73
2018-05-16T16:24:09.573Z,6.70
2018-05-16T16:26:42.185Z,10.53
2018-05-16T16:29:14.825Z,7.07
2018-05-16T16:31:47.450Z,6.10
2018-05-16T16:34:20.115Z,6.43
2018-05-16T16:36:52.720Z,6.13
2018-05-16T16:39:26.127Z,5.80
2018-05-16T16:41:58.759Z,6.17
2018-05-16T16:44:31.410Z,6.37
2018-05-16T16:47:04.792Z,6.00
2018-05-16T16:49:37.443Z,5.27
2018-05-16T16:52:10.052Z,6.60
2018-05-16T16:54:42.687Z,6.07
2018-05-16T16:57:15.388Z,6.80
2018-05-16T16:59:47.938Z,6.47
2018-05-16T17:02:20.533Z,6.50
2018-05-16T17:04:53.151Z,6.63
2018-05-16T17:07:25.762Z,6.97
2018-05-16T17:09:58.428Z,7.23
2018-05-16T17:12:31.024Z,6.67
2018-05-16T17:15:03.676Z,7.33
2018-05-16T17:17:36.321Z,6.67
2018-05-16T17:20:09.012Z,6.77
2018-05-16T17:22:41.620Z,6.50
2018-05-16T17:25:15.048Z,6.03
2018-05-16T17:27:47.639Z,6.37
2018-05-16T17:30:20.365Z,6.37
2018-05-16T17:32:52.898Z,6.63
2018-05-16T17:35:26.310Z,6.43
2018-05-16T17:37:58.927Z,6.37
2018-05-16T17:40:31.565Z,6.87
2018-05-16T17:43:04.172Z,7.13
2018-05-16T17:45:37.567Z,6.37
2018-05-16T17:48:10.162Z,6.27
2018-05-16T17:50:42.819Z,6.70
2018-05-16T17:53:15.428Z,6.93
2018-05-16T17:55:48.954Z,6.60
2018-05-16T17:58:21.580Z,6.87
2018-05-16T18:00:54.310Z,6.80
2018-05-16T18:03:27.631Z,6.80
2018-05-16T18:06:00.264Z,6.60
2018-05-16T18:08:33.632Z,6.80
2018-05-16T18:11:06.287Z,7.00
2018-05-16T18:13:59.754Z,6.70
2018-05-16T18:16:44.288Z,7.50
2018-05-16T18:19:17.842Z,7.53
2018-05-16T18:21:50.499Z,7.10
2018-05-16T18:24:23.136Z,7.87
2018-05-16T18:26:55.762Z,7.50
2018-05-16T18:29:28.418Z,7.57
2018-05-16T18:32:01.023Z,7.47
2018-05-16T18:34:33.631Z,7.43
2018-05-16T18:37:06.272Z,6.90
2018-05-16T18:39:38.893Z,7.43
2018-05-16T18:42:16.131Z,7.10
2018-05-16T18:44:48.747Z,7.23
2018-05-16T18:47:21.397Z,7.00
2018-05-16T18:49:54.002Z,7.80
2018-05-16T18:52:26.687Z,7.33
2018-05-16T18:54:59.287Z,7.77
2018-05-16T18:57:31.928Z,7.53
2018-05-16T19:00:04.536Z,7.80
2018-05-16T19:02:37.179Z,7.83
2018-05-16T19:05:09.786Z,8.40
2018-05-16T19:07:43.194Z,7.77
2018-05-16T19:10:16.551Z,8.80
2018-05-16T19:12:49.187Z,7.97
2018-05-16T19:15:22.547Z,7.57
2018-05-16T19:17:55.188Z,7.83
2018-05-16T19:20:27.787Z,8.30
2018-05-16T19:23:00.437Z,8.37
2018-05-16T19:25:33.042Z,7.57
2018-05-16T19:28:05.671Z,7.43
2018-05-16T19:30:39.031Z,7.80
2018-05-16T19:33:11.655Z,7.90
2018-05-16T19:35:45.015Z,7.60
2018-05-16T19:38:17.638Z,8.33
2018-05-16T19:40:51.015Z,8.20
2018-05-16T19:43:23.644Z,7.27
2018-05-16T19:45:56.265Z,7.80
2018-05-16T19:48:28.935Z,8.27
2018-05-16T19:51:01.551Z,7.43
2018-05-16T19:53:34.195Z,7.73
2018-05-16T19:56:06.807Z,7.27
2018-05-16T19:58:40.492Z,7.40
2018-05-16T20:01:13.804Z,7.63
2018-05-16T20:03:46.428Z,7.57
2018-05-16T20:06:19.041Z,7.67
2018-05-16T20:08:51.655Z,8.10
2018-05-16T20:11:24.247Z,8.00
2018-05-16T20:13:57.646Z,7.20
2018-05-16T20:16:30.281Z,7.10
2018-05-16T20:19:03.888Z,7.50
2018-05-16T20:21:36.512Z,7.63
2018-05-16T20:24:09.920Z,8.10
2018-05-16T20:26:43.295Z,6.20
2018-05-16T20:29:15.984Z,6.97
2018-05-16T20:31:48.557Z,6.83
2018-05-16T20:34:21.203Z,6.73
2018-05-16T20:36:53.808Z,6.83
2018-05-16T20:39:30.131Z,7.03
2018-05-16T20:42:02.740Z,6.67
2018-05-16T20:44:35.380Z,6.70
2018-05-16T20:47:07.995Z,6.20
2018-05-16T20:49:40.691Z,7.07
2018-05-16T20:52:13.300Z,6.30
2018-05-16T20:54:45.923Z,6.63
2018-05-16T20:57:19.283Z,6.40
2018-05-16T20:59:51.923Z,5.60
2018-05-16T21:02:24.519Z,5.97
2018-05-16T21:04:57.908Z,6.00
2018-05-16T21:07:30.511Z,5.83
2018-05-16T21:10:03.123Z,6.30
2018-05-16T21:12:35.729Z,6.23
2018-05-16T21:15:08.364Z,6.07
2018-05-16T21:17:40.967Z,6.00
2018-05-16T21:20:13.720Z,5.13
2018-05-16T21:22:46.320Z,5.50
2018-05-16T21:25:18.953Z,5.30
2018-05-16T21:27:52.339Z,5.63
2018-05-16T21:30:24.986Z,5.47
2018-05-16T21:32:57.586Z,6.20
2018-05-16T21:35:30.251Z,5.70
2018-05-16T21:38:03.628Z,5.63
2018-05-16T21:40:36.259Z,5.90
2018-05-16T21:43:08.846Z,5.93
2018-05-16T21:45:42.255Z,5.53
2018-05-16T21:48:15.615Z,6.00
2018-05-16T21:50:48.247Z,6.00
2018-05-16T21:53:21.602Z,6.20
2018-05-16T21:55:54.238Z,5.77
2018-05-16T21:58:26.843Z,5.30
2018-05-16T22:01:00.233Z,5.40
2018-05-16T22:03:32.822Z,5.87
2018-05-16T22:06:05.456Z,5.90
2018-05-16T22:08:38.069Z,6.23
2018-05-16T22:11:10.692Z,6.03
2018-05-16T22:13:43.283Z,5.80
2018-05-16T22:16:15.915Z,5.40
2018-05-16T22:18:48.504Z,5.60
2018-05-16T22:21:21.146Z,5.53
2018-05-16T22:23:53.746Z,6.23
2018-05-16T22:26:26.384Z,6.10
2018-05-16T22:28:58.992Z,6.27
2018-05-16T22:31:37.400Z,6.00
2018-05-16T22:34:15.604Z,6.00
2018-05-16T22:36:53.856Z,5.53
2018-05-16T22:39:32.123Z,5.70
2018-05-16T22:42:10.408Z,5.67
2018-05-16T22:44:49.467Z,6.53
2018-05-16T22:47:22.078Z,6.47
2018-05-16T22:49:54.675Z,6.07
2018-05-16T22:52:27.302Z,6.00
2018-05-16T22:55:00.659Z,6.47
2018-05-16T22:57:33.314Z,6.47
2018-05-16T23:00:05.904Z,6.57
2018-05-16T23:02:38.545Z,6.93
2018-05-16T23:05:11.167Z,6.33
2018-05-16T23:07:51.175Z,6.77
2018-05-16T23:10:23.767Z,7.17
2018-05-16T23:12:56.556Z,7.00
2018-05-16T23:15:29.160Z,6.27
2018-05-16T23:18:01.791Z,6.80
2018-05-16T23:20:34.387Z,6.90
2018-05-16T23:23:07.796Z,7.40
2018-05-16T23:25:41.164Z,6.70
2018-05-16T23:28:13.782Z,6.83
2018-05-16T23:30:46.454Z,7.40
2018-05-16T23:33:19.051Z,7.20
2018-05-16T23:35:51.659Z,7.20
2018-05-16T23:38:24.291Z,7.13
2018-05-16T23:40:56.903Z,7.50
2018-05-16T23:43:29.535Z,7.60
2018-05-16T23:46:02.139Z,7.77
2018-05-16T23:48:34.769Z,7.10
2018-05-16T23:51:07.371Z,7.23
2018-05-16T23:53:39.988Z,6.97
2018-05-16T23:56:12.584Z,8.07
2018-05-16T23:58:45.210Z,7.87
